Аэропорт: Домодедово. Москва

ICAO: UUDD

METAR:
2018/11/19 10:00
UUDD 191000Z 01003MPS 350V080 4400 -SN BR BKN004 02/00 Q1030 R88/290095 NOSIG
METAR:
2018/11/19 09:21
TAF UUDD 190759Z 1909/2015 36005MPS 8000 OVC007 TX02/1912Z TNM03/2005Z 
      TEMPO 1909/1922 3100 -SN SCT004 OVC011 
      BECMG 1922/1924 3100 BR SCT011 PROB40 
      TEMPO 2000/2006 0300 FZFG OVC003 
      BECMG 2007/2009 30005MPS 8000 NSW